KCXO/CXO METAR and TAF weather

Enter ICAO airport designator
Station Type Date Time Source
KCXO METAR 2020/07/02 21:53 UTC NOAA

KCXO 022153Z VRB04KT 10SM CLR 34/22 A2994 RMK AO2 SLP135 T03440222


Station Type Date Time Source
KCXO Decoded METAR 2020/07/02 21:53 UTC NOAA

LONE STAR EXECUTIVE AIRPORT, TX, United States (KCXO) 30-21N 95-25W 75M
Jul 02, 2020 - 05:53 PM EDT / 2020.07.02 2153 UTC
Wind: Variable at 5 MPH (4 KT):0
Visibility: 10 mile(s):0
Sky conditions: clear
Temperature: 93.9 F (34.4 C)
Heat index: 102.0 F (38.9 C):1
Dew Point: 72.0 F (22.2 C)
Relative Humidity: 49%
Pressure (altimeter): 29.94 in. Hg (1013 hPa)
ob: KCXO 022153Z VRB04KT 10SM CLR 34/22 A2994 RMK AO2 SLP135 T03440222
cycle: 22

Station Type Date Time Source
KCXO TAF 2020/07/02 18:30 UTC NOAA

TAF KCXO 021720Z 0218/0318 22008KT P6SM SCT040
FM030100 VRB04KT P6SM FEW015 FEW025
FM030700 21004KT P6SM BKN015 BKN025
FM031500 24008KT P6SM FEW015 SCT025

Example: see airport list